createdAt,value
2023-04-13T00:01:23.391Z,91.74
2023-04-13T00:03:50.202Z,90.89
2023-04-13T00:06:16.941Z,89.43
2023-04-13T00:08:44.316Z,89.90
2023-04-13T00:11:11.665Z,87.81
2023-04-13T00:13:43.209Z,86.39
2023-04-13T00:16:10.775Z,89.10
2023-04-13T00:18:37.498Z,89.19
2023-04-13T00:21:04.306Z,89.37
2023-04-13T00:23:32.146Z,90.25
2023-04-13T00:26:01.875Z,88.63
2023-04-13T00:28:29.827Z,88.62
2023-04-13T00:30:56.574Z,88.22
2023-04-13T00:33:23.303Z,88.46
2023-04-13T00:35:50.025Z,87.76
2023-04-13T00:40:56.072Z,88.23
2023-04-13T00:43:22.675Z,87.43
2023-04-13T00:45:50.046Z,89.01
2023-04-13T00:50:54.554Z,86.75
2023-04-13T00:53:21.282Z,87.06
2023-04-13T00:55:48.769Z,85.64
2023-04-13T00:58:15.413Z,86.47
2023-04-13T01:00:43.629Z,86.25
2023-04-13T01:03:10.540Z,87.06
2023-04-13T01:05:54.955Z,87.20
2023-04-13T01:08:39.882Z,87.28
2023-04-13T01:11:19.725Z,87.59
2023-04-13T01:13:57.228Z,87.14
2023-04-13T01:16:30.878Z,85.92
2023-04-13T01:18:57.647Z,84.37
2023-04-13T01:21:26.456Z,85.92
2023-04-13T01:23:59.437Z,86.21
2023-04-13T01:26:54.861Z,85.21
2023-04-13T01:29:21.995Z,85.03
2023-04-13T01:31:50.048Z,84.57
2023-04-13T01:36:51.110Z,85.26
2023-04-13T01:39:21.664Z,84.21
2023-04-13T01:41:48.250Z,85.20
2023-04-13T01:44:15.016Z,85.07
2023-04-13T01:52:00.412Z,84.69
2023-04-13T01:54:29.255Z,84.21
2023-04-13T01:56:57.535Z,83.73
2023-04-13T02:02:02.982Z,84.96
2023-04-13T02:04:29.709Z,83.53
2023-04-13T02:06:56.559Z,84.87
2023-04-13T02:09:23.175Z,84.09
2023-04-13T02:11:50.294Z,82.40
2023-04-13T02:14:17.067Z,81.68
2023-04-13T02:16:43.833Z,81.03
2023-04-13T02:19:10.924Z,80.05
2023-04-13T02:21:37.534Z,79.89
2023-04-13T02:24:04.385Z,78.68
2023-04-13T02:26:31.084Z,79.00
2023-04-13T02:28:58.138Z,78.93
2023-04-13T02:31:24.913Z,77.18
2023-04-13T02:33:52.377Z,77.02
2023-04-13T02:36:19.445Z,76.89
2023-04-13T02:38:46.247Z,77.63
2023-04-13T02:41:12.931Z,77.95
2023-04-13T02:43:39.600Z,78.11
2023-04-13T02:46:06.637Z,79.39
2023-04-13T02:48:33.341Z,79.26
2023-04-13T02:51:00.031Z,79.86
2023-04-13T02:53:27.434Z,79.44
2023-04-13T02:55:55.111Z,78.90
2023-04-13T02:58:23.712Z,78.51
2023-04-13T03:00:50.826Z,78.33
2023-04-13T03:03:17.550Z,78.91
2023-04-13T03:05:44.289Z,79.50
2023-04-13T03:08:10.945Z,81.31
2023-04-13T03:10:37.858Z,79.24
2023-04-13T03:13:04.530Z,78.21
2023-04-13T03:15:31.888Z,77.73
2023-04-13T03:18:00.300Z,77.43
2023-04-13T03:20:29.410Z,78.65
2023-04-13T03:22:57.337Z,77.74
2023-04-13T03:25:24.079Z,76.97
2023-04-13T03:27:51.646Z,76.75
2023-04-13T03:32:55.938Z,76.68
2023-04-13T03:35:22.620Z,77.28
2023-04-13T03:37:49.336Z,77.49
2023-04-13T03:40:15.960Z,76.89
2023-04-13T03:42:42.664Z,77.08
2023-04-13T03:45:10.784Z,75.91
2023-04-13T03:50:06.429Z,76.61
2023-04-13T03:52:33.049Z,76.11
2023-04-13T03:54:59.924Z,77.32
2023-04-13T03:57:27.776Z,78.03
2023-04-13T03:59:54.439Z,76.85
2023-04-13T04:02:21.993Z,77.73
2023-04-13T04:04:48.785Z,77.13
2023-04-13T04:07:15.532Z,76.78
2023-04-13T04:09:42.551Z,76.11
2023-04-13T04:12:09.237Z,73.89
2023-04-13T04:14:36.423Z,74.08
2023-04-13T04:17:03.393Z,75.22
2023-04-13T04:19:30.078Z,74.06
2023-04-13T04:21:58.181Z,74.72
2023-04-13T04:24:27.860Z,74.63
2023-04-13T04:26:56.290Z,74.69
2023-04-13T04:29:22.946Z,75.07
2023-04-13T04:31:53.798Z,73.03
2023-04-13T04:34:20.984Z,71.40
2023-04-13T04:36:52.074Z,71.44
2023-04-13T04:39:26.864Z,71.90
2023-04-13T04:41:55.112Z,71.18
2023-04-13T04:44:25.577Z,71.27
2023-04-13T04:46:53.002Z,71.07
2023-04-13T04:49:21.931Z,71.96
2023-04-13T04:51:49.342Z,71.57
2023-04-13T04:54:20.431Z,71.93
2023-04-13T04:56:51.382Z,71.34
2023-04-13T04:59:19.868Z,70.82
2023-04-13T05:01:46.957Z,70.41
2023-04-13T05:04:13.968Z,71.23
2023-04-13T05:09:20.958Z,71.26
2023-04-13T05:11:47.684Z,71.65
2023-04-13T05:14:14.408Z,70.98
2023-04-13T05:16:41.093Z,71.18
2023-04-13T05:19:09.465Z,72.24
2023-04-13T05:21:36.955Z,72.98
2023-04-13T05:24:04.581Z,72.57
2023-04-13T05:26:31.589Z,71.05
2023-04-13T05:28:58.766Z,71.83
2023-04-13T05:31:26.064Z,71.27
2023-04-13T05:33:52.798Z,70.40
2023-04-13T05:36:19.426Z,69.83
2023-04-13T05:38:46.121Z,71.13
2023-04-13T05:41:13.286Z,69.27
2023-04-13T05:43:40.081Z,69.41
2023-04-13T05:46:07.959Z,70.88
2023-04-13T05:48:35.029Z,68.26
2023-04-13T05:51:01.862Z,70.46
2023-04-13T05:53:28.549Z,68.71
2023-04-13T05:55:55.526Z,70.45
2023-04-13T05:58:22.353Z,69.95
2023-04-13T06:00:49.122Z,68.52
2023-04-13T06:03:16.425Z,70.41
2023-04-13T06:05:43.538Z,69.37
2023-04-13T06:10:44.677Z,70.76
2023-04-13T06:13:11.443Z,69.71
2023-04-13T06:15:39.137Z,68.73
2023-04-13T06:18:06.144Z,69.20
2023-04-13T06:20:33.771Z,68.87
2023-04-13T06:23:00.438Z,70.14
2023-04-13T06:25:27.374Z,68.81
2023-04-13T06:27:54.717Z,68.84
2023-04-13T06:30:21.921Z,67.67
2023-04-13T06:32:48.596Z,67.41
2023-04-13T06:35:17.627Z,65.71
2023-04-13T06:37:44.340Z,67.09
2023-04-13T06:40:13.003Z,66.46
2023-04-13T06:42:41.356Z,66.49
2023-04-13T06:45:09.375Z,66.57
2023-04-13T06:47:37.450Z,66.65
2023-04-13T06:50:06.858Z,67.07
2023-04-13T06:52:34.073Z,65.58
2023-04-13T06:55:01.491Z,66.26
2023-04-13T06:57:28.641Z,66.04
2023-04-13T06:59:55.800Z,65.82
2023-04-13T07:02:22.733Z,66.09
2023-04-13T07:04:49.923Z,66.28
2023-04-13T07:07:16.844Z,66.07
2023-04-13T07:09:43.625Z,66.16
2023-04-13T07:12:10.284Z,66.37
2023-04-13T07:14:38.804Z,65.93
2023-04-13T07:17:05.998Z,65.61
2023-04-13T07:19:34.032Z,65.75
2023-04-13T07:22:02.339Z,65.47
2023-04-13T07:24:30.170Z,66.16
2023-04-13T07:26:57.848Z,65.73
2023-04-13T07:29:25.169Z,64.64
2023-04-13T07:31:52.283Z,66.06
2023-04-13T07:34:19.483Z,65.56
2023-04-13T07:36:46.318Z,65.49
2023-04-13T07:39:13.005Z,65.24
2023-04-13T07:41:39.778Z,64.47
2023-04-13T07:44:06.629Z,65.75
2023-04-13T07:46:33.976Z,65.38
2023-04-13T07:49:01.057Z,65.44
2023-04-13T07:51:27.936Z,64.48
2023-04-13T07:53:54.960Z,64.93
2023-04-13T07:56:22.795Z,63.87
2023-04-13T07:58:50.665Z,63.34
2023-04-13T08:01:17.676Z,63.97
2023-04-13T08:03:44.658Z,64.79
2023-04-13T08:06:11.889Z,64.19
2023-04-13T08:08:38.788Z,64.45
2023-04-13T08:11:05.720Z,64.01
2023-04-13T08:13:32.377Z,64.81
2023-04-13T08:16:00.588Z,64.37
2023-04-13T08:18:27.961Z,63.79
2023-04-13T08:20:55.298Z,64.18
2023-04-13T08:23:22.683Z,63.72
2023-04-13T08:25:49.433Z,65.64
2023-04-13T08:28:16.227Z,65.07
2023-04-13T08:30:43.113Z,65.81
2023-04-13T08:33:10.397Z,63.71
2023-04-13T08:35:39.531Z,63.57
2023-04-13T08:38:09.514Z,63.64
2023-04-13T08:40:38.808Z,64.05
2023-04-13T08:43:06.816Z,63.12
2023-04-13T08:45:34.622Z,63.05
2023-04-13T08:48:02.233Z,63.94
2023-04-13T08:50:29.307Z,64.06
2023-04-13T08:52:56.105Z,64.10
2023-04-13T08:55:22.894Z,64.01
2023-04-13T08:57:51.746Z,62.36
2023-04-13T09:00:19.601Z,62.72
2023-04-13T09:03:03.710Z,63.11
2023-04-13T09:05:34.541Z,62.06
2023-04-13T09:08:04.423Z,61.17
2023-04-13T09:10:31.277Z,62.72
2023-04-13T09:12:57.983Z,63.41
2023-04-13T09:15:25.262Z,63.56
2023-04-13T09:17:52.440Z,63.77
2023-04-13T09:20:23.675Z,63.65
2023-04-13T09:22:51.796Z,61.99
2023-04-13T09:25:25.696Z,62.43
2023-04-13T09:27:52.775Z,63.44
2023-04-13T09:30:21.636Z,63.01
2023-04-13T09:32:48.381Z,61.46
2023-04-13T09:35:15.009Z,60.60
2023-04-13T09:37:44.598Z,60.87
2023-04-13T09:40:16.736Z,60.80
2023-04-13T09:42:57.744Z,59.83
2023-04-13T09:45:24.666Z,59.74
2023-04-13T09:47:53.119Z,59.90
2023-04-13T09:50:29.126Z,59.92
2023-04-13T09:55:39.613Z,60.88
2023-04-13T09:58:13.886Z,59.44
2023-04-13T10:00:42.383Z,59.59
2023-04-13T10:03:12.097Z,60.11
2023-04-13T10:05:57.145Z,59.67
2023-04-13T10:08:36.870Z,58.88
2023-04-13T10:11:10.651Z,59.70
2023-04-13T10:14:01.262Z,60.42
2023-04-13T10:16:58.907Z,60.54
2023-04-13T10:19:31.118Z,60.22
2023-04-13T10:21:58.980Z,60.85
2023-04-13T10:24:25.902Z,59.78
2023-04-13T10:27:00.397Z,59.18
2023-04-13T10:29:28.662Z,59.88
2023-04-13T10:32:03.890Z,59.82
2023-04-13T10:34:32.995Z,60.96
2023-04-13T10:39:36.430Z,62.13
2023-04-13T10:42:03.863Z,61.14
2023-04-13T10:44:49.675Z,61.22
2023-04-13T10:47:21.669Z,60.98
2023-04-13T10:49:49.792Z,59.54
2023-04-13T10:52:17.126Z,59.16
2023-04-13T10:54:44.785Z,59.20
2023-04-13T10:57:12.335Z,59.30
2023-04-13T11:02:16.811Z,59.00
2023-04-13T11:04:47.549Z,60.33
2023-04-13T11:07:17.144Z,60.81
2023-04-13T11:09:45.842Z,60.60
2023-04-13T11:12:13.313Z,63.16
2023-04-13T11:14:40.094Z,64.11
2023-04-13T11:17:15.205Z,64.28
2023-04-13T11:22:35.792Z,65.77
2023-04-13T11:25:07.260Z,64.70
2023-04-13T11:27:34.104Z,62.47
2023-04-13T11:30:06.680Z,63.10
2023-04-13T11:32:34.601Z,67.09
2023-04-13T11:35:17.542Z,64.31
2023-04-13T11:37:49.681Z,65.56
2023-04-13T11:40:20.531Z,72.17
2023-04-13T11:42:49.140Z,75.22
2023-04-13T11:45:17.327Z,79.05
2023-04-13T11:47:46.337Z,79.87
2023-04-13T11:50:15.453Z,83.10
2023-04-13T11:52:43.701Z,84.22
2023-04-13T11:55:22.159Z,84.83
2023-04-13T11:57:50.573Z,83.37
2023-04-13T12:00:24.659Z,81.72
2023-04-13T12:05:28.089Z,85.10
2023-04-13T12:07:56.406Z,85.71
2023-04-13T12:10:38.962Z,88.09
2023-04-13T12:16:01.654Z,91.73
2023-04-13T12:18:37.337Z,90.06
2023-04-13T12:21:05.900Z,87.91
2023-04-13T12:23:33.102Z,92.57
2023-04-13T12:26:39.520Z,89.38
2023-04-13T12:31:38.431Z,87.67
2023-04-13T12:34:06.693Z,88.42
2023-04-13T12:36:36.354Z,83.86
2023-04-13T12:39:07.182Z,83.99
2023-04-13T12:41:33.841Z,84.52
2023-04-13T12:44:00.687Z,84.15
2023-04-13T12:46:27.367Z,84.66
2023-04-13T12:48:54.329Z,83.11
2023-04-13T12:51:21.377Z,83.16
2023-04-13T12:53:48.185Z,83.34
2023-04-13T12:56:14.864Z,81.83
2023-04-13T12:58:41.603Z,81.62
2023-04-13T13:01:08.890Z,82.75
2023-04-13T13:03:37.156Z,80.77
2023-04-13T13:06:05.792Z,84.03
2023-04-13T13:08:35.069Z,80.71
2023-04-13T13:11:03.610Z,82.11
2023-04-13T13:13:30.219Z,79.94
2023-04-13T13:15:56.901Z,75.58
2023-04-13T13:18:23.511Z,78.26
2023-04-13T13:20:53.651Z,73.98
2023-04-13T13:23:20.472Z,72.83
2023-04-13T13:25:59.280Z,71.62
2023-04-13T13:28:33.928Z,74.15
2023-04-13T13:31:00.624Z,73.98
2023-04-13T13:33:27.362Z,72.95
2023-04-13T13:35:54.010Z,73.39
2023-04-13T13:38:20.681Z,74.44
2023-04-13T13:40:47.635Z,76.18
2023-04-13T13:43:14.421Z,76.59
2023-04-13T13:45:41.389Z,75.98
2023-04-13T13:48:08.136Z,74.67
2023-04-13T13:50:34.898Z,73.28
2023-04-13T13:53:04.233Z,75.04
2023-04-13T13:55:31.897Z,75.49
2023-04-13T13:57:58.867Z,76.46
2023-04-13T14:00:26.097Z,73.89
2023-04-13T14:02:53.389Z,75.98
2023-04-13T14:05:22.122Z,79.00
2023-04-13T14:07:49.059Z,78.11
2023-04-13T14:12:49.575Z,80.46
2023-04-13T14:15:17.371Z,81.22
2023-04-13T14:17:50.228Z,82.85
2023-04-13T14:23:01.202Z,84.03
2023-04-13T14:25:27.866Z,84.40
2023-04-13T14:27:54.484Z,86.25
2023-04-13T14:30:23.677Z,85.05
2023-04-13T14:32:52.188Z,84.76
2023-04-13T14:35:20.278Z,84.43
2023-04-13T14:37:47.781Z,84.68
2023-04-13T14:40:17.268Z,84.34
2023-04-13T14:42:44.123Z,82.16
2023-04-13T14:45:12.579Z,84.42
2023-04-13T14:47:42.746Z,83.65
2023-04-13T14:50:10.005Z,84.32
2023-04-13T14:52:36.853Z,82.93
2023-04-13T14:55:04.556Z,82.28
2023-04-13T14:57:31.623Z,81.97
2023-04-13T14:59:58.247Z,83.04
2023-04-13T15:02:27.687Z,82.46
2023-04-13T15:04:54.772Z,83.79
2023-04-13T15:07:21.964Z,84.30
2023-04-13T15:09:49.149Z,84.83
2023-04-13T15:12:15.900Z,84.69
2023-04-13T15:14:46.779Z,85.64
2023-04-13T15:17:13.690Z,86.05
2023-04-13T15:19:40.354Z,85.55
2023-04-13T15:22:07.056Z,86.77
2023-04-13T15:24:33.751Z,88.33
2023-04-13T15:27:00.516Z,88.75
2023-04-13T15:29:27.431Z,89.92
2023-04-13T15:31:54.339Z,89.49
2023-04-13T15:34:21.038Z,93.42
2023-04-13T15:36:48.002Z,94.97
2023-04-13T15:39:14.679Z,95.22
2023-04-13T15:41:41.298Z,93.81
2023-04-13T15:44:08.391Z,95.17
2023-04-13T15:49:06.428Z,92.44
2023-04-13T15:54:04.470Z,93.56
2023-04-13T15:56:31.123Z,94.19
2023-04-13T15:58:58.151Z,94.33
2023-04-13T16:03:59.025Z,96.03
2023-04-13T16:06:26.222Z,94.27
2023-04-13T16:08:54.447Z,98.48
2023-04-13T16:11:21.109Z,99.77
2023-04-13T16:13:50.064Z,98.36
2023-04-13T16:16:17.857Z,92.69
2023-04-13T16:21:22.880Z,94.36
2023-04-13T16:23:49.476Z,94.31
2023-04-13T16:26:16.227Z,90.14
2023-04-13T16:28:42.843Z,93.24
2023-04-13T16:31:10.065Z,94.13
2023-04-13T16:33:37.382Z,96.68
2023-04-13T16:36:04.306Z,95.69
2023-04-13T16:38:31.497Z,95.83
2023-04-13T16:40:58.308Z,94.60
2023-04-13T16:43:25.220Z,95.57
2023-04-13T16:45:51.906Z,97.37
2023-04-13T16:48:18.621Z,95.26
2023-04-13T16:50:45.259Z,96.06
2023-04-13T16:53:11.988Z,95.34
2023-04-13T16:58:12.064Z,95.43
2023-04-13T17:00:39.411Z,97.23
2023-04-13T17:03:06.160Z,96.00
2023-04-13T17:05:32.842Z,96.22
2023-04-13T17:07:59.563Z,96.34
2023-04-13T17:10:26.444Z,95.45
2023-04-13T17:12:53.117Z,95.75
2023-04-13T17:15:20.326Z,97.72
2023-04-13T17:17:47.333Z,96.44
2023-04-13T17:20:16.803Z,98.05
2023-04-13T17:22:44.265Z,97.75
2023-04-13T17:25:11.064Z,99.24
2023-04-13T17:27:37.677Z,100.00
2023-04-13T17:30:04.942Z,100.00
2023-04-13T17:32:31.905Z,100.00
2023-04-13T17:34:58.769Z,100.00
2023-04-13T17:37:25.699Z,100.00
2023-04-13T17:39:52.349Z,100.00
2023-04-13T17:42:19.115Z,100.00
2023-04-13T17:44:45.920Z,100.00
2023-04-13T17:47:12.599Z,99.57
2023-04-13T17:49:39.309Z,98.83
2023-04-13T17:52:06.276Z,98.24
2023-04-13T17:54:33.250Z,98.63
2023-04-13T17:57:01.943Z,100.00
2023-04-13T17:59:28.947Z,100.00
2023-04-13T18:01:56.402Z,99.55
2023-04-13T18:04:23.320Z,99.78
2023-04-13T18:06:50.168Z,98.85
2023-04-13T18:09:16.896Z,98.27
2023-04-13T18:11:43.562Z,99.12
2023-04-13T18:14:12.457Z,99.23
2023-04-13T18:16:39.374Z,96.74
2023-04-13T18:19:06.405Z,98.50
2023-04-13T18:21:33.155Z,98.32
2023-04-13T18:24:03.334Z,97.48
2023-04-13T18:26:30.304Z,97.29
2023-04-13T18:28:57.131Z,99.64
2023-04-13T18:31:23.939Z,98.17
2023-04-13T18:33:50.686Z,98.93
2023-04-13T18:36:18.404Z,98.93
2023-04-13T18:38:46.291Z,98.22
2023-04-13T18:41:13.370Z,98.10
2023-04-13T18:43:40.097Z,97.81
2023-04-13T18:46:08.094Z,99.09
2023-04-13T18:48:35.443Z,100.00
2023-04-13T18:51:03.858Z,99.96
2023-04-13T18:53:31.175Z,98.50
2023-04-13T18:55:59.070Z,98.85
2023-04-13T18:58:26.580Z,97.17
2023-04-13T19:00:53.265Z,98.11
2023-04-13T19:03:20.335Z,99.06
2023-04-13T19:05:47.416Z,98.18
2023-04-13T19:08:14.299Z,99.89
2023-04-13T19:10:41.945Z,100.00
2023-04-13T19:13:08.807Z,100.00
2023-04-13T19:15:36.143Z,100.00
2023-04-13T19:18:04.574Z,100.00
2023-04-13T19:20:31.618Z,100.00
2023-04-13T19:22:58.448Z,100.00
2023-04-13T19:27:56.590Z,100.00
2023-04-13T19:30:23.259Z,100.00
2023-04-13T19:32:50.328Z,100.00
2023-04-13T19:35:17.611Z,99.49
2023-04-13T19:37:44.366Z,100.00
2023-04-13T19:40:13.965Z,100.00
2023-04-13T19:42:44.898Z,100.00
2023-04-13T19:45:13.243Z,100.00
2023-04-13T19:47:40.750Z,99.37
2023-04-13T19:50:09.688Z,99.91
2023-04-13T19:52:36.565Z,99.46
2023-04-13T19:55:03.415Z,98.90
2023-04-13T19:57:30.777Z,98.44
2023-04-13T19:59:57.959Z,97.15
2023-04-13T20:02:24.955Z,98.05
2023-04-13T20:04:52.403Z,97.89
2023-04-13T20:07:19.229Z,97.44
2023-04-13T20:12:17.894Z,98.03
2023-04-13T20:14:46.521Z,97.18
2023-04-13T20:17:16.575Z,94.96
2023-04-13T20:19:43.274Z,95.34
2023-04-13T20:22:11.177Z,97.77
2023-04-13T20:24:37.828Z,97.23
2023-04-13T20:27:05.278Z,96.91
2023-04-13T20:29:31.938Z,96.21
2023-04-13T20:31:58.655Z,95.01
2023-04-13T20:34:30.533Z,95.71
2023-04-13T20:36:59.094Z,95.59
2023-04-13T20:39:30.141Z,96.27
2023-04-13T20:47:02.270Z,95.18
2023-04-13T20:49:31.870Z,95.89
2023-04-13T20:51:58.595Z,95.25
2023-04-13T20:54:25.296Z,97.41
2023-04-13T20:56:52.245Z,97.61
2023-04-13T20:59:19.550Z,97.29
2023-04-13T21:04:17.655Z,98.60
2023-04-13T21:06:45.161Z,96.88
2023-04-13T21:09:11.886Z,96.25
2023-04-13T21:11:38.637Z,95.52
2023-04-13T21:14:05.532Z,96.47
2023-04-13T21:16:33.207Z,98.59
2023-04-13T21:19:00.031Z,100.00
2023-04-13T21:21:27.936Z,99.75
2023-04-13T21:23:55.037Z,99.31
2023-04-13T21:26:21.914Z,100.00
2023-04-13T21:28:48.640Z,100.00
2023-04-13T21:31:15.778Z,100.00
2023-04-13T21:33:43.136Z,100.00
2023-04-13T21:38:48.601Z,100.00
2023-04-13T21:41:16.552Z,100.00
2023-04-13T21:43:43.363Z,100.00
2023-04-13T21:46:14.076Z,100.00
2023-04-13T21:48:41.066Z,100.00
2023-04-13T21:51:09.542Z,100.00
2023-04-13T21:53:37.356Z,100.00
2023-04-13T21:56:04.887Z,100.00
2023-04-13T21:58:42.425Z,100.00
2023-04-13T22:01:09.578Z,100.00
2023-04-13T22:03:45.640Z,100.00
2023-04-13T22:06:13.096Z,100.00
2023-04-13T22:08:40.696Z,100.00
2023-04-13T22:11:07.407Z,100.00
2023-04-13T22:16:06.022Z,100.00
2023-04-13T22:18:32.886Z,100.00
2023-04-13T22:21:00.211Z,100.00
2023-04-13T22:23:27.124Z,100.00
2023-04-13T22:25:59.061Z,100.00
2023-04-13T22:30:58.713Z,100.00
2023-04-13T22:33:25.644Z,100.00
2023-04-13T22:35:52.401Z,100.00
2023-04-13T22:38:19.764Z,100.00
2023-04-13T22:40:46.491Z,100.00
2023-04-13T22:43:13.458Z,100.00
2023-04-13T22:45:40.186Z,99.96
2023-04-13T22:48:07.001Z,100.00
2023-04-13T22:50:33.754Z,100.00
2023-04-13T22:53:00.469Z,99.85
2023-04-13T22:58:05.505Z,100.00
2023-04-13T23:00:32.139Z,100.00
2023-04-13T23:02:58.955Z,100.00
2023-04-13T23:05:25.711Z,100.00
2023-04-13T23:07:52.486Z,100.00
2023-04-13T23:10:19.393Z,100.00
2023-04-13T23:12:46.983Z,100.00
2023-04-13T23:15:14.591Z,100.00
2023-04-13T23:17:41.546Z,100.00
2023-04-13T23:20:08.741Z,100.00
2023-04-13T23:22:35.533Z,100.00
2023-04-13T23:25:02.353Z,100.00
2023-04-13T23:27:29.081Z,100.00
2023-04-13T23:29:55.793Z,100.00
2023-04-13T23:32:22.586Z,100.00
2023-04-13T23:34:51.121Z,100.00
2023-04-13T23:37:17.889Z,100.00
2023-04-13T23:39:44.482Z,99.40
2023-04-13T23:44:49.121Z,99.15
2023-04-13T23:47:15.908Z,98.95
2023-04-13T23:49:42.575Z,100.00
2023-04-13T23:52:10.108Z,100.00
2023-04-13T23:54:36.965Z,100.00
2023-04-13T23:57:03.596Z,100.00
2023-04-13T23:59:30.293Z,100.00
